Time;durP1;ratioP1;P1;durP2;ratioP2;P2;SDS_P1;SDS_P2;PMS_P1;PMS_P2;Temp;Humidity;BMP_temperature;BMP_pressure;BME280_temperature;BME280_humidity;BME280_pressure;Samples;Min_cycle;Max_cycle;Signal;HPM_P1;HPM_P2
2023/07/03 00:00:16;;;;;;;16.27;10.13;;;20.10;69.50;;;;;;5061031;28;20131;-79
2023/07/03 00:02:43;;;;;;;20.27;9.65;;;20.10;69.50;;;;;;5063159;28;20438;-79
2023/07/03 00:05:10;;;;;;;19.60;10.82;;;20.20;69.30;;;;;;5062298;28;20063;-79
2023/07/03 00:07:37;;;;;;;16.85;10.63;;;20.10;69.50;;;;;;5060513;28;20043;-79
2023/07/03 00:10:04;;;;;;;17.00;11.18;;;20.00;69.90;;;;;;5064150;28;20473;-79
2023/07/03 00:12:30;;;;;;;18.60;11.52;;;20.00;69.90;;;;;;5061881;28;20123;-78
2023/07/03 00:14:57;;;;;;;19.50;11.50;;;19.90;69.90;;;;;;5060605;28;20177;-79
2023/07/03 00:17:23;;;;;;;18.75;11.18;;;20.00;70.00;;;;;;5061638;28;20033;-77
2023/07/03 00:19:49;;;;;;;16.52;11.18;;;20.00;70.20;;;;;;5061227;28;20032;-77
2023/07/03 00:22:15;;;;;;;14.68;10.90;;;20.00;70.10;;;;;;5060955;28;20582;-77
2023/07/03 00:24:41;;;;;;;17.80;10.90;;;20.00;70.00;;;;;;5060882;28;20115;-77
2023/07/03 00:27:07;;;;;;;14.82;10.68;;;19.90;70.40;;;;;;5060433;28;20488;-78
2023/07/03 00:29:33;;;;;;;20.65;11.23;;;19.90;70.60;;;;;;5061682;28;20086;-78
2023/07/03 00:32:00;;;;;;;22.25;11.02;;;19.90;70.80;;;;;;5059917;28;20032;-78
2023/07/03 00:34:27;;;;;;;17.70;10.82;;;19.90;70.80;;;;;;5060950;28;20066;-78
2023/07/03 00:36:54;;;;;;;15.38;10.80;;;19.90;70.90;;;;;;5060760;28;20119;-77
2023/07/03 00:39:20;;;;;;;19.65;10.93;;;19.90;71.00;;;;;;5076499;28;20086;-78
2023/07/03 00:41:46;;;;;;;21.35;10.70;;;19.90;71.10;;;;;;5055923;28;20094;-78
2023/07/03 00:44:16;;;;;;;17.85;10.38;;;19.90;71.00;;;;;;5061009;28;20032;-77
2023/07/03 00:46:46;;;;;;;16.73;10.50;;;19.90;71.20;;;;;;5060965;28;20122;-79
2023/07/03 00:49:12;;;;;;;16.85;11.75;;;19.90;71.30;;;;;;5059262;28;22072;-77
2023/07/03 00:51:41;;;;;;;18.13;10.80;;;19.90;71.20;;;;;;5060330;28;20041;-77
2023/07/03 00:54:07;;;;;;;19.88;11.40;;;19.90;71.50;;;;;;5061854;28;20040;-77
2023/07/03 00:56:33;;;;;;;16.40;10.65;;;19.80;71.60;;;;;;5060990;28;20036;-79
2023/07/03 00:58:59;;;;;;;20.10;11.18;;;19.80;71.50;;;;;;5061325;28;20098;-78
2023/07/03 01:01:26;;;;;;;14.00;10.90;;;19.80;71.80;;;;;;5054600;28;20078;-78
2023/07/03 01:04:08;;;;;;;16.08;10.40;;;19.80;71.80;;;;;;5029503;28;20040;-78
2023/07/03 01:06:50;;;;;;;18.40;10.07;;;19.90;71.80;;;;;;5059539;28;20389;-78
2023/07/03 01:09:19;;;;;;;17.33;10.77;;;19.90;71.70;;;;;;5059076;28;20586;-78
2023/07/03 01:11:47;;;;;;;17.50;10.00;;;19.90;71.70;;;;;;5058435;28;20191;-78
2023/07/03 01:14:17;;;;;;;16.88;9.15;;;19.80;71.90;;;;;;5056557;28;20040;-78
2023/07/03 01:16:45;;;;;;;12.38;9.20;;;19.90;72.00;;;;;;5059577;28;20151;-78
2023/07/03 01:19:15;;;;;;;13.10;9.68;;;19.80;72.20;;;;;;5061083;28;20064;-79
2023/07/03 01:21:58;;;;;;;16.83;9.60;;;19.90;72.20;;;;;;5074134;28;20049;-78
2023/07/03 01:24:49;;;;;;;16.42;9.60;;;19.90;72.00;;;;;;5055665;28;20366;-78
2023/07/03 01:27:19;;;;;;;16.20;9.25;;;19.90;71.90;;;;;;5056454;28;20029;-79
2023/07/03 01:29:46;;;;;;;15.63;9.13;;;19.90;71.90;;;;;;5055425;28;20029;-78
2023/07/03 01:32:14;;;;;;;15.68;8.85;;;19.90;71.80;;;;;;5061974;28;20056;-77
2023/07/03 01:34:45;;;;;;;13.73;8.68;;;19.90;71.90;;;;;;5060289;28;20066;-78
2023/07/03 01:37:16;;;;;;;15.95;9.07;;;20.00;71.80;;;;;;5059954;28;20082;-79
2023/07/03 01:39:45;;;;;;;15.52;8.82;;;19.90;72.10;;;;;;5058701;28;20040;-77
2023/07/03 01:42:13;;;;;;;15.07;9.15;;;19.90;72.60;;;;;;5041557;28;20064;-77
2023/07/03 01:44:39;;;;;;;13.45;9.07;;;19.80;73.20;;;;;;5059734;28;20036;-78
2023/07/03 01:47:15;;;;;;;12.85;9.50;;;19.70;73.50;;;;;;5058540;28;20168;-76
2023/07/03 01:49:41;;;;;;;14.40;9.52;;;19.70;74.10;;;;;;5059332;28;20036;-77
2023/07/03 01:52:16;;;;;;;21.13;9.05;;;19.80;74.10;;;;;;5059408;28;20024;-78
2023/07/03 01:55:03;;;;;;;15.88;10.02;;;19.80;74.40;;;;;;5060730;28;20308;-77
2023/07/03 01:57:52;;;;;;;13.77;9.35;;;19.80;74.60;;;;;;5058667;28;20036;-77
2023/07/03 02:00:27;;;;;;;14.10;9.68;;;19.90;74.80;;;;;;5058881;28;20028;-77
2023/07/03 02:02:56;;;;;;;14.65;9.20;;;19.90;74.90;;;;;;5058363;28;20064;-77
2023/07/03 02:05:27;;;;;;;16.48;9.52;;;19.90;75.30;;;;;;5056155;28;20465;-78
2023/07/03 02:07:57;;;;;;;14.18;9.38;;;19.80;75.40;;;;;;5060456;28;20105;-77
2023/07/03 02:10:23;;;;;;;13.98;9.20;;;19.90;75.70;;;;;;5062340;28;20036;-77
2023/07/03 02:12:51;;;;;;;23.10;10.50;;;19.80;76.20;;;;;;5061743;28;20036;-78
2023/07/03 02:15:21;;;;;;;13.23;9.35;;;19.90;76.20;;;;;;5074427;28;20459;-79
2023/07/03 02:17:47;;;;;;;11.73;9.20;;;19.90;76.20;;;;;;5057533;28;20052;-78
2023/07/03 02:20:14;;;;;;;15.25;9.55;;;19.90;76.60;;;;;;5059079;28;20128;-78
2023/07/03 02:22:41;;;;;;;12.77;9.40;;;19.90;76.70;;;;;;5059285;28;20053;-79
2023/07/03 02:25:11;;;;;;;15.43;9.02;;;20.00;77.10;;;;;;5043949;28;20031;-78
2023/07/03 02:27:38;;;;;;;16.80;10.10;;;20.00;77.20;;;;;;5057104;28;20086;-78
2023/07/03 02:30:05;;;;;;;13.05;9.52;;;20.00;77.20;;;;;;5060780;28;20033;-78
2023/07/03 02:32:38;;;;;;;15.52;9.32;;;20.00;78.20;;;;;;5057721;28;20120;-79
2023/07/03 02:35:05;;;;;;;14.93;9.77;;;20.00;78.30;;;;;;5060500;28;20051;-78
2023/07/03 02:37:32;;;;;;;17.38;10.63;;;20.00;78.70;;;;;;5043995;28;20561;-78
2023/07/03 02:39:58;;;;;;;16.77;9.65;;;20.00;78.90;;;;;;5057498;28;20028;-78
2023/07/03 02:42:24;;;;;;;13.15;10.05;;;20.00;78.70;;;;;;5040754;28;20047;-78
2023/07/03 02:44:52;;;;;;;14.40;9.65;;;20.10;79.50;;;;;;5074352;28;20384;-78
2023/07/03 02:47:18;;;;;;;13.90;9.98;;;20.10;79.50;;;;;;5057104;28;20028;-79
2023/07/03 02:49:45;;;;;;;13.15;9.75;;;20.10;79.30;;;;;;5064773;28;20448;-79
2023/07/03 02:52:12;;;;;;;12.43;9.30;;;20.20;79.10;;;;;;5064437;28;20511;-78
2023/07/03 02:54:38;;;;;;;13.50;9.40;;;20.30;79.40;;;;;;5063056;28;20044;-78
2023/07/03 02:57:05;;;;;;;11.55;9.25;;;20.40;79.00;;;;;;5061494;28;20045;-79
2023/07/03 02:59:32;;;;;;;12.68;9.43;;;20.50;79.10;;;;;;5063673;28;20041;-79
2023/07/03 03:01:58;;;;;;;15.30;9.75;;;20.50;79.00;;;;;;5065240;28;20790;-80
2023/07/03 03:04:26;;;;;;;12.73;8.63;;;20.50;79.20;;;;;;5065260;28;20044;-81
2023/07/03 03:06:53;;;;;;;11.80;8.98;;;20.60;79.20;;;;;;5047351;28;20056;-78
2023/07/03 03:09:19;;;;;;;14.15;8.98;;;20.60;79.10;;;;;;5067331;28;20114;-81
2023/07/03 03:11:45;;;;;;;12.30;8.82;;;20.70;79.20;;;;;;5061157;28;20063;-82
2023/07/03 03:14:13;;;;;;;14.02;8.63;;;20.80;79.30;;;;;;5065101;28;20029;-82
2023/07/03 03:16:39;;;;;;;10.60;8.70;;;20.90;79.40;;;;;;5060014;28;20032;-80
2023/07/03 03:19:05;;;;;;;12.70;8.65;;;20.90;80.00;;;;;;5046633;28;21176;-82
2023/07/03 03:21:31;;;;;;;12.85;8.73;;;21.00;80.30;;;;;;5047685;28;20048;-82
2023/07/03 03:23:57;;;;;;;11.90;8.68;;;21.10;79.80;;;;;;5061682;28;20491;-74
2023/07/03 03:26:24;;;;;;;11.10;8.27;;;21.10;80.40;;;;;;5060428;28;20071;-84
2023/07/03 03:28:51;;;;;;;11.20;8.20;;;21.20;79.90;;;;;;5060262;28;20077;-81
2023/07/03 03:31:18;;;;;;;10.57;8.48;;;21.20;80.20;;;;;;5063917;28;20029;-78
2023/07/03 03:33:51;;;;;;;12.40;8.50;;;21.20;80.30;;;;;;5031549;28;20040;-82
2023/07/03 03:36:17;;;;;;;12.32;8.80;;;21.20;80.50;;;;;;5063472;28;20515;-78
2023/07/03 03:38:44;;;;;;;8.25;7.20;;;21.30;79.90;;;;;;5044414;28;20040;-73
2023/07/03 03:41:10;;;;;;;9.43;8.20;;;21.40;79.70;;;;;;5062194;28;20036;-73
2023/07/03 03:43:39;;;;;;;11.63;7.43;;;21.60;79.40;;;;;;5058881;28;20036;-73
2023/07/03 03:46:05;;;;;;;13.15;7.80;;;21.80;78.30;;;;;;5057771;28;20271;-73
2023/07/03 03:48:34;;;;;;;9.32;8.02;;;22.00;78.10;;;;;;5062143;28;20043;-74
2023/07/03 03:51:03;;;;;;;12.32;7.82;;;22.10;77.80;;;;;;5040826;28;20074;-73
2023/07/03 03:53:31;;;;;;;11.55;7.93;;;22.10;77.70;;;;;;5045656;28;20035;-72
2023/07/03 03:55:58;;;;;;;11.07;7.80;;;22.10;78.10;;;;;;5058285;28;20123;-73
2023/07/03 03:58:24;;;;;;;11.35;7.78;;;22.20;77.90;;;;;;5062402;28;20055;-84
2023/07/03 04:00:51;;;;;;;8.77;7.03;;;22.30;77.90;;;;;;5059573;28;20056;-86
2023/07/03 04:03:17;;;;;;;9.82;7.40;;;22.40;77.50;;;;;;5061582;28;20535;-75
2023/07/03 04:05:43;;;;;;;9.77;7.18;;;22.50;77.20;;;;;;5061195;28;20059;-74
2023/07/03 04:08:10;;;;;;;9.38;6.85;;;22.70;75.50;;;;;;5058815;28;20123;-75
2023/07/03 04:10:36;;;;;;;7.55;6.75;;;22.90;75.60;;;;;;5060633;28;20029;-73
2023/07/03 04:13:02;;;;;;;8.25;7.00;;;23.10;75.30;;;;;;5061792;28;20033;-74
2023/07/03 04:15:35;;;;;;;7.53;6.40;;;23.30;74.00;;;;;;5064011;28;20086;-76
2023/07/03 04:18:01;;;;;;;9.13;6.90;;;23.50;74.60;;;;;;5061439;28;20106;-73
2023/07/03 04:20:27;;;;;;;7.90;6.68;;;23.60;73.10;;;;;;5061417;28;20500;-75
2023/07/03 04:22:54;;;;;;;13.40;6.20;;;23.80;72.70;;;;;;5060624;28;20173;-75
2023/07/03 04:25:20;;;;;;;9.70;6.30;;;24.00;72.10;;;;;;5061676;28;20024;-76
2023/07/03 04:27:45;;;;;;;6.20;5.45;;;24.10;72.10;;;;;;5061308;28;20040;-76
2023/07/03 04:30:12;;;;;;;9.43;6.97;;;24.20;71.80;;;;;;5061830;28;20419;-75
2023/07/03 04:32:38;;;;;;;7.32;6.38;;;24.20;72.00;;;;;;5061891;28;20167;-74
2023/07/03 04:35:05;;;;;;;6.68;6.05;;;24.30;71.70;;;;;;5060809;28;20530;-74
2023/07/03 04:37:31;;;;;;;7.43;6.30;;;24.30;71.40;;;;;;5044831;28;20055;-75
2023/07/03 04:39:57;;;;;;;8.00;6.10;;;24.20;71.80;;;;;;5061548;28;20503;-75
2023/07/03 04:42:23;;;;;;;7.68;5.80;;;24.00;72.10;;;;;;5061158;28;20033;-76
2023/07/03 04:44:50;;;;;;;6.32;5.40;;;24.00;71.80;;;;;;5061338;28;20040;-75
2023/07/03 04:47:16;;;;;;;6.05;5.22;;;23.90;71.80;;;;;;5060501;28;20049;-76
2023/07/03 04:49:45;;;;;;;7.90;5.50;;;23.80;71.60;;;;;;5061453;28;20124;-77
2023/07/03 04:52:16;;;;;;;5.95;5.05;;;23.90;71.50;;;;;;5061358;28;20111;-76
2023/07/03 04:54:43;;;;;;;6.78;5.68;;;23.70;71.70;;;;;;5059913;28;20064;-77
2023/07/03 04:57:09;;;;;;;6.15;5.32;;;23.70;71.90;;;;;;5042755;28;20028;-76
2023/07/03 04:59:36;;;;;;;8.23;5.47;;;23.60;72.00;;;;;;5060194;28;20037;-76
2023/07/03 05:02:02;;;;;;;6.32;5.43;;;23.60;72.20;;;;;;5061064;28;20095;-76
2023/07/03 05:04:28;;;;;;;6.90;5.20;;;23.70;71.90;;;;;;5058643;28;20044;-77
2023/07/03 05:06:54;;;;;;;6.50;5.00;;;23.80;71.70;;;;;;5060101;28;20419;-76
2023/07/03 05:09:20;;;;;;;5.88;5.28;;;23.80;71.20;;;;;;5060791;28;20074;-75
2023/07/03 05:11:48;;;;;;;5.30;4.80;;;23.80;71.20;;;;;;5059138;28;20033;-76
2023/07/03 05:14:15;;;;;;;6.45;5.40;;;23.80;71.40;;;;;;5060584;28;20541;-76
2023/07/03 05:16:41;;;;;;;5.88;5.28;;;23.80;71.30;;;;;;5061110;28;20494;-77
2023/07/03 05:19:07;;;;;;;6.57;4.90;;;23.80;71.30;;;;;;5060162;28;20024;-76
2023/07/03 05:21:33;;;;;;;7.47;5.00;;;23.90;71.50;;;;;;5060138;28;20088;-76
2023/07/03 05:23:59;;;;;;;7.15;4.97;;;24.00;71.70;;;;;;5045335;28;20454;-76
2023/07/03 05:26:25;;;;;;;5.82;5.25;;;23.90;71.40;;;;;;5059931;28;20040;-75
2023/07/03 05:28:51;;;;;;;6.45;4.97;;;23.90;71.20;;;;;;5062442;28;20036;-75
2023/07/03 05:31:22;;;;;;;5.80;4.50;;;23.80;71.10;;;;;;5059033;28;20535;-75
2023/07/03 05:33:48;;;;;;;5.38;4.88;;;23.80;71.30;;;;;;5059925;28;20424;-75
2023/07/03 05:36:14;;;;;;;6.10;4.75;;;24.00;71.20;;;;;;5058769;28;20535;-74
2023/07/03 05:38:40;;;;;;;5.50;4.50;;;24.20;70.50;;;;;;5059828;28;20048;-77
2023/07/03 05:41:06;;;;;;;7.47;4.50;;;24.20;70.20;;;;;;5059560;28;20133;-77
2023/07/03 05:43:32;;;;;;;5.80;4.60;;;24.20;70.20;;;;;;5059155;28;20035;-76
2023/07/03 05:45:58;;;;;;;5.90;4.80;;;24.40;70.20;;;;;;5058599;28;20039;-77
2023/07/03 05:48:24;;;;;;;5.22;4.60;;;24.60;69.50;;;;;;5059898;28;20575;-76
2023/07/03 05:50:50;;;;;;;5.00;4.28;;;24.80;68.80;;;;;;5060972;28;20052;-76
2023/07/03 05:53:16;;;;;;;5.35;4.45;;;25.00;68.60;;;;;;5059863;28;20617;-76
2023/07/03 05:55:43;;;;;;;7.15;4.50;;;25.10;67.70;;;;;;5060825;28;20407;-76
2023/07/03 05:58:11;;;;;;;5.03;4.57;;;25.20;67.30;;;;;;5059991;28;20511;-76
2023/07/03 06:00:37;;;;;;;7.25;4.50;;;25.40;66.80;;;;;;5058850;28;20050;-77
2023/07/03 06:03:04;;;;;;;5.20;3.95;;;25.60;66.10;;;;;;5060836;28;20067;-75
2023/07/03 06:05:31;;;;;;;5.00;3.97;;;25.70;65.10;;;;;;5059860;28;20462;-77
2023/07/03 06:07:57;;;;;;;5.70;4.13;;;25.80;64.20;;;;;;5058728;28;20047;-76
2023/07/03 06:10:23;;;;;;;4.72;3.83;;;25.90;62.80;;;;;;5059127;28;20033;-76
2023/07/03 06:12:49;;;;;;;5.40;4.15;;;26.10;62.90;;;;;;5058434;28;20028;-77
2023/07/03 06:15:15;;;;;;;6.95;4.18;;;26.40;62.30;;;;;;5061144;28;20399;-75
2023/07/03 06:17:42;;;;;;;3.72;3.40;;;26.50;61.30;;;;;;5059943;28;20864;-76
2023/07/03 06:20:10;;;;;;;3.80;3.50;;;26.40;60.40;;;;;;5060762;28;20041;-76
2023/07/03 06:22:38;;;;;;;5.15;3.47;;;26.10;60.50;;;;;;5058926;28;20500;-75
2023/07/03 06:25:06;;;;;;;3.90;3.50;;;26.00;60.80;;;;;;5060530;28;20082;-76
2023/07/03 06:27:32;;;;;;;4.70;3.63;;;26.10;60.70;;;;;;5059177;28;20422;-77
2023/07/03 06:29:58;;;;;;;3.38;2.97;;;26.30;59.70;;;;;;5059583;28;20028;-75
2023/07/03 06:32:24;;;;;;;3.42;3.10;;;26.40;59.00;;;;;;5059954;28;20408;-75
2023/07/03 06:34:50;;;;;;;8.48;2.60;;;26.60;58.20;;;;;;5060827;28;20464;-76
2023/07/03 06:37:16;;;;;;;4.05;2.67;;;26.70;57.20;;;;;;5059157;28;20033;-76
2023/07/03 06:39:42;;;;;;;3.55;2.70;;;26.80;56.00;;;;;;5057272;28;20040;-75
2023/07/03 06:42:09;;;;;;;3.58;2.83;;;26.90;55.70;;;;;;5059117;28;20041;-75
2023/07/03 06:44:40;;;;;;;5.43;2.65;;;27.00;56.60;;;;;;5059113;28;20887;-77
2023/07/03 06:47:06;;;;;;;4.78;2.70;;;27.00;55.30;;;;;;5059021;28;20044;-77
2023/07/03 06:49:34;;;;;;;3.67;2.90;;;27.00;55.30;;;;;;5059342;28;20503;-75
2023/07/03 06:52:00;;;;;;;2.95;2.65;;;27.20;54.80;;;;;;5058834;28;20582;-75
2023/07/03 06:54:26;;;;;;;3.25;2.25;;;27.50;54.20;;;;;;5059732;28;20140;-76
2023/07/03 06:56:53;;;;;;;4.85;2.63;;;27.70;53.20;;;;;;5059275;28;20123;-76
2023/07/03 06:59:18;;;;;;;3.05;2.75;;;27.90;52.80;;;;;;5058644;28;20124;-76
2023/07/03 07:01:44;;;;;;;4.22;2.60;;;27.90;51.70;;;;;;5060291;28;20466;-75
2023/07/03 07:04:11;;;;;;;2.70;2.50;;;27.90;51.30;;;;;;5059841;28;20384;-75
2023/07/03 07:06:39;;;;;;;4.35;2.33;;;27.90;51.00;;;;;;5058921;28;20039;-74
2023/07/03 07:09:05;;;;;;;4.03;2.45;;;28.00;50.80;;;;;;5058328;28;20415;-74
2023/07/03 07:11:34;;;;;;;3.00;2.50;;;28.10;50.80;;;;;;5058537;28;20037;-76
2023/07/03 07:14:04;;;;;;;5.40;2.22;;;28.10;50.60;;;;;;5059138;28;20539;-76
2023/07/03 07:16:34;;;;;;;2.67;2.38;;;28.20;50.70;;;;;;5059732;28;20173;-75
2023/07/03 07:19:02;;;;;;;4.07;2.50;;;28.20;50.30;;;;;;5060323;28;20093;-74
2023/07/03 07:21:33;;;;;;;4.53;2.58;;;28.20;49.40;;;;;;5060355;28;20057;-76
2023/07/03 07:24:18;;;;;;;4.50;2.40;;;28.20;48.90;;;;;;5064494;28;20037;-77
2023/07/03 07:26:45;;;;;;;3.35;2.53;;;28.20;48.00;;;;;;5055147;28;20037;-74
2023/07/03 07:29:11;;;;;;;2.30;2.10;;;28.10;48.40;;;;;;5063889;28;20086;-77
2023/07/03 07:31:38;;;;;;;5.03;2.47;;;28.00;50.80;;;;;;5063892;28;20033;-75
2023/07/03 07:34:05;;;;;;;4.20;2.50;;;27.90;49.70;;;;;;5058366;28;20029;-77
2023/07/03 07:36:31;;;;;;;3.58;2.58;;;27.70;49.60;;;;;;5059233;28;20219;-76
2023/07/03 07:39:00;;;;;;;3.15;2.78;;;27.60;50.30;;;;;;5059019;28;20032;-75
2023/07/03 07:41:26;;;;;;;5.70;2.85;;;27.40;50.70;;;;;;5058863;28;20503;-76
2023/07/03 07:43:54;;;;;;;4.20;3.05;;;27.40;51.30;;;;;;5060024;28;20404;-77
2023/07/03 07:46:25;;;;;;;3.55;2.60;;;27.50;52.00;;;;;;5041102;28;20020;-75
2023/07/03 07:48:51;;;;;;;3.90;2.50;;;27.50;51.80;;;;;;5061015;28;20033;-76
2023/07/03 07:51:17;;;;;;;3.03;2.75;;;27.30;52.40;;;;;;5062519;28;20174;-75
2023/07/03 07:53:43;;;;;;;4.57;2.88;;;27.30;52.10;;;;;;5061039;28;20105;-77
2023/07/03 07:56:10;;;;;;;2.95;2.65;;;27.30;52.90;;;;;;5060503;28;20036;-75
2023/07/03 07:58:37;;;;;;;3.17;2.88;;;27.40;51.50;;;;;;5063048;28;20036;-74
2023/07/03 08:01:03;;;;;;;3.33;2.95;;;27.50;51.50;;;;;;5060767;28;20032;-74
2023/07/03 08:03:29;;;;;;;5.30;2.60;;;27.40;50.80;;;;;;5061857;28;21458;-74
2023/07/03 08:05:57;;;;;;;3.78;2.67;;;27.40;51.60;;;;;;5060339;28;20033;-76
2023/07/03 08:08:26;;;;;;;3.50;2.83;;;27.30;52.50;;;;;;5060846;28;20043;-76
2023/07/03 08:10:56;;;;;;;3.30;2.47;;;27.30;53.20;;;;;;5060100;28;20037;-77
2023/07/03 08:13:22;;;;;;;4.15;2.10;;;27.30;52.40;;;;;;5063236;28;20025;-79
2023/07/03 08:15:48;;;;;;;4.30;2.45;;;27.20;49.50;;;;;;5062630;28;20565;-82
2023/07/03 08:18:16;;;;;;;4.20;2.00;;;27.20;48.20;;;;;;5061187;28;20047;-83
2023/07/03 08:20:42;;;;;;;2.55;1.85;;;27.10;46.70;;;;;;5061357;28;20033;-85
2023/07/03 08:23:09;;;;;;;2.50;1.92;;;27.10;46.60;;;;;;5062881;28;20554;-82
2023/07/03 08:25:35;;;;;;;4.25;2.20;;;27.00;46.20;;;;;;5062052;28;20117;-79
2023/07/03 08:28:01;;;;;;;2.78;1.98;;;26.90;46.00;;;;;;5061864;28;20063;-82
2023/07/03 08:30:28;;;;;;;2.17;1.95;;;26.90;46.60;;;;;;5062643;28;20037;-82
2023/07/03 08:32:54;;;;;;;2.25;1.83;;;26.90;46.50;;;;;;5061583;28;20106;-79
2023/07/03 08:35:20;;;;;;;2.25;1.77;;;26.90;46.60;;;;;;5062426;28;20032;-80
2023/07/03 08:37:46;;;;;;;5.07;2.03;;;26.90;46.60;;;;;;5060824;28;20123;-77
2023/07/03 08:40:18;;;;;;;5.40;2.08;;;26.80;47.40;;;;;;5062578;28;20122;-78
2023/07/03 08:42:53;;;;;;;3.00;2.15;;;26.70;47.60;;;;;;5061879;28;20660;-78
2023/07/03 08:45:23;;;;;;;2.20;2.00;;;26.70;47.50;;;;;;5063514;28;20028;-78
2023/07/03 08:47:52;;;;;;;4.57;2.03;;;26.60;48.10;;;;;;5064903;28;20511;-78
2023/07/03 08:50:21;;;;;;;3.92;2.35;;;26.60;49.10;;;;;;5061710;28;20111;-78
2023/07/03 08:53:03;;;;;;;4.60;2.17;;;26.60;49.50;;;;;;5062245;28;20036;-77
2023/07/03 08:55:36;;;;;;;4.82;2.10;;;26.50;49.40;;;;;;5059067;28;20669;-76
2023/07/03 08:58:02;;;;;;;1.92;1.80;;;26.50;49.70;;;;;;5059993;28;20040;-76
2023/07/03 09:00:33;;;;;;;4.53;1.98;;;26.50;48.90;;;;;;5060108;28;20041;-77
2023/07/03 09:03:04;;;;;;;2.50;1.90;;;26.40;49.30;;;;;;5060711;28;20040;-78
2023/07/03 09:05:43;;;;;;;2.40;1.65;;;26.40;49.80;;;;;;5060478;28;20119;-74
2023/07/03 09:08:19;;;;;;;3.90;1.95;;;26.30;50.10;;;;;;5062370;28;20041;-78
2023/07/03 09:10:49;;;;;;;6.75;2.38;;;26.30;49.90;;;;;;5061185;28;20602;-79
2023/07/03 09:13:40;;;;;;;4.53;1.73;;;26.20;49.50;;;;;;5062882;28;20502;-79
2023/07/03 09:16:21;;;;;;;2.10;1.90;;;26.10;50.00;;;;;;5061939;28;20048;-83
2023/07/03 09:18:57;;;;;;;5.50;2.22;;;26.10;51.00;;;;;;5062025;28;20062;-78
2023/07/03 09:21:25;;;;;;;6.25;2.22;;;26.10;51.00;;;;;;5059405;28;20048;-79
2023/07/03 09:23:59;;;;;;;3.90;2.72;;;26.10;52.80;;;;;;5059940;28;20134;-79
2023/07/03 09:27:17;;;;;;;9.13;8.00;;;26.10;52.80;;;;;;5061240;28;20048;-74
2023/07/03 09:29:44;;;;;;;5.80;3.88;;;26.10;52.60;;;;;;5020552;28;20184;-74
2023/07/03 09:32:23;;;;;;;5.63;2.83;;;26.10;53.00;;;;;;5020305;28;20128;-74
2023/07/03 09:35:12;;;;;;;3.88;2.30;;;26.00;53.10;;;;;;5021881;28;20296;-72
2023/07/03 09:37:41;;;;;;;4.22;2.63;;;26.10;53.30;;;;;;5021355;28;20516;-74
2023/07/03 09:40:13;;;;;;;5.38;2.60;;;26.00;53.10;;;;;;5021692;28;20075;-74
2023/07/03 09:42:41;;;;;;;5.95;2.30;;;26.10;52.50;;;;;;5013530;28;20038;-74
2023/07/03 09:45:22;;;;;;;4.13;2.58;;;26.00;51.10;;;;;;5019985;28;20499;-73
2023/07/03 09:48:00;;;;;;;3.60;2.00;;;26.00;51.60;;;;;;5020423;28;20539;-74
2023/07/03 09:50:39;;;;;;;4.10;2.17;;;26.00;51.30;;;;;;5020646;28;20037;-73
2023/07/03 09:53:05;;;;;;;2.40;2.10;;;26.00;52.00;;;;;;5018638;28;20416;-73
2023/07/03 09:55:31;;;;;;;5.85;2.65;;;26.00;52.40;;;;;;5020381;28;20528;-73
2023/07/03 09:57:58;;;;;;;7.55;2.60;;;26.10;54.80;;;;;;5019221;28;20112;-72
2023/07/03 10:00:26;;;;;;;10.90;3.30;;;26.10;53.60;;;;;;5003950;28;20456;-72
2023/07/03 10:02:57;;;;;;;5.30;4.30;;;26.10;54.60;;;;;;5020973;28;20101;-73
2023/07/03 10:05:34;;;;;;;5.88;4.63;;;26.10;52.10;;;;;;5046520;28;20040;-74
2023/07/03 10:08:03;;;;;;;8.23;3.50;;;26.00;51.20;;;;;;5059590;28;20036;-73
2023/07/03 10:10:33;;;;;;;5.47;2.85;;;26.00;51.80;;;;;;5058571;28;20040;-74
2023/07/03 10:13:12;;;;;;;5.07;3.00;;;26.00;52.10;;;;;;5058998;28;20036;-74
2023/07/03 10:15:41;;;;;;;7.28;3.03;;;26.00;52.00;;;;;;5058836;28;20476;-74
2023/07/03 10:18:16;;;;;;;4.10;2.60;;;26.00;52.00;;;;;;5059187;28;20466;-73
2023/07/03 10:20:45;;;;;;;2.47;2.10;;;25.90;51.70;;;;;;5058239;28;21595;-73
2023/07/03 10:23:27;;;;;;;4.22;2.65;;;25.90;52.60;;;;;;5059604;28;20040;-73
2023/07/03 10:26:13;;;;;;;3.70;2.67;;;25.90;52.20;;;;;;5058860;28;20664;-73
2023/07/03 10:28:45;;;;;;;2.60;2.40;;;25.90;52.40;;;;;;5056951;28;20033;-74
2023/07/03 10:31:23;;;;;;;3.22;2.72;;;26.00;52.70;;;;;;5060018;28;20033;-73
2023/07/03 10:33:58;;;;;;;5.78;2.65;;;26.10;52.00;;;;;;5057663;28;20036;-72
2023/07/03 10:36:27;;;;;;;3.08;2.30;;;26.10;51.30;;;;;;5055630;28;20075;-73
2023/07/03 10:39:03;;;;;;;4.15;2.63;;;26.10;51.10;;;;;;5058558;28;20309;-73
2023/07/03 10:41:49;;;;;;;6.38;2.47;;;26.00;51.00;;;;;;5059699;28;20174;-73
2023/07/03 10:44:29;;;;;;;;;;;26.00;49.80;;;;;;5059801;28;20115;-73
2023/07/03 10:47:17;;;;;;;3.58;2.30;;;26.00;50.00;;;;;;5058388;28;19912;-73
2023/07/03 10:49:44;;;;;;;3.03;2.25;;;25.90;50.00;;;;;;5059554;28;20083;-73
2023/07/03 10:52:27;;;;;;;3.88;2.33;;;25.90;49.30;;;;;;5060813;28;21376;-72
2023/07/03 10:55:06;;;;;;;2.90;2.15;;;25.90;49.20;;;;;;5059289;28;20128;-73
2023/07/03 10:57:44;;;;;;;3.17;2.17;;;25.90;49.60;;;;;;5058493;28;20071;-74
2023/07/03 11:00:17;;;;;;;3.85;2.33;;;25.80;49.80;;;;;;5059862;28;20041;-73
2023/07/03 11:03:25;;;;;;;6.35;2.17;;;25.80;50.30;;;;;;5058481;28;20129;-74
2023/07/03 11:06:02;;;;;;;4.75;2.40;;;25.80;50.20;;;;;;5056295;28;20360;-73
2023/07/03 11:08:45;;;;;;;4.40;2.20;;;25.70;50.80;;;;;;5058298;28;20048;-74
2023/07/03 11:11:20;;;;;;;4.03;2.17;;;25.70;50.90;;;;;;5056679;28;20089;-72
2023/07/03 11:13:51;;;;;;;2.45;2.13;;;25.70;51.20;;;;;;5059300;28;20041;-73
2023/07/03 11:16:20;;;;;;;3.95;2.30;;;25.70;50.90;;;;;;5044636;28;20587;-74
2023/07/03 11:19:05;;;;;;;4.00;2.17;;;25.70;50.80;;;;;;5057948;28;20118;-74
2023/07/03 11:21:41;;;;;;;;;;;25.60;50.80;;;;;;5059028;28;20055;-73
2023/07/03 11:24:10;;;;;;;3.72;2.45;;;25.70;51.70;;;;;;5062646;28;19916;-74
2023/07/03 11:26:38;;;;;;;3.40;2.30;;;25.60;50.50;;;;;;5061615;28;20061;-73
2023/07/03 11:29:07;;;;;;;3.78;2.10;;;25.80;50.60;;;;;;5063933;28;20467;-73
2023/07/03 11:31:35;;;;;;;2.47;2.08;;;25.70;49.90;;;;;;5063110;28;20846;-74
2023/07/03 11:34:02;;;;;;;4.80;2.58;;;25.70;49.80;;;;;;5062033;28;20044;-73
2023/07/03 11:36:37;;;;;;;5.05;2.20;;;25.70;50.40;;;;;;5062441;28;20423;-74
2023/07/03 11:39:11;;;;;;;;;;;25.70;51.20;;;;;;5063423;28;20530;-73
2023/07/03 11:42:09;;;;;;;3.53;2.10;;;25.70;50.70;;;;;;5061891;28;20423;-74
2023/07/03 11:44:45;;;;;;;3.05;2.20;;;25.70;50.80;;;;;;5053998;28;20060;-73
2023/07/03 11:47:33;;;;;;;3.00;2.10;;;25.70;50.30;;;;;;5061586;28;20055;-73
2023/07/03 11:50:05;;;;;;;4.18;1.98;;;25.70;50.60;;;;;;5061156;28;20040;-74
2023/07/03 11:52:31;;;;;;;4.95;2.17;;;25.70;50.90;;;;;;5063611;28;20036;-72
2023/07/03 11:55:05;;;;;;;3.92;2.13;;;25.70;50.20;;;;;;5062651;28;20047;-74
2023/07/03 11:57:40;;;;;;;4.65;2.28;;;25.70;49.20;;;;;;5062210;28;20044;-72
2023/07/03 12:00:17;;;;;;;3.05;2.40;;;25.70;49.80;;;;;;5061624;28;20036;-73
2023/07/03 12:02:53;;;;;;;5.88;2.22;;;25.70;49.70;;;;;;5063560;28;20044;-73
2023/07/03 12:05:43;;;;;;;7.85;2.50;;;25.70;49.80;;;;;;5061559;28;20044;-73
2023/07/03 12:08:18;;;;;;;4.68;1.88;;;25.70;49.60;;;;;;5059973;28;20066;-73
2023/07/03 12:10:52;;;;;;;;;;;25.70;49.40;;;;;;5061595;28;20539;-73
2023/07/03 12:13:39;;;;;;;5.70;2.10;;;25.70;49.40;;;;;;5061126;28;19908;-77
2023/07/03 12:16:15;;;;;;;2.33;1.60;;;25.70;49.60;;;;;;5061189;28;20037;-73
2023/07/03 12:18:41;;;;;;;3.25;2.10;;;25.70;49.30;;;;;;5060506;28;20565;-76
2023/07/03 12:21:08;;;;;;;7.75;1.98;;;25.70;49.50;;;;;;5062144;28;20037;-74
2023/07/03 12:23:37;;;;;;;4.55;2.00;;;25.70;50.00;;;;;;5059128;28;20055;-72
2023/07/03 12:26:15;;;;;;;4.57;2.10;;;25.70;49.80;;;;;;5059937;28;20043;-71
2023/07/03 12:28:42;;;;;;;3.58;1.73;;;25.70;49.90;;;;;;5061491;28;20036;-73
2023/07/03 12:31:11;;;;;;;5.50;2.05;;;25.60;49.70;;;;;;5062560;28;20170;-72
2023/07/03 12:33:46;;;;;;;3.08;1.90;;;25.60;50.20;;;;;;5063322;28;20033;-75
2023/07/03 12:36:19;;;;;;;3.58;1.90;;;25.60;50.50;;;;;;5062704;28;20279;-75
2023/07/03 12:38:44;;;;;;;4.78;2.25;;;25.60;50.00;;;;;;5062160;28;20033;-75
2023/07/03 12:41:10;;;;;;;1.98;1.65;;;25.70;50.30;;;;;;5061976;28;20047;-75
2023/07/03 12:43:36;;;;;;;5.30;2.13;;;25.60;50.30;;;;;;5060606;28;20147;-73
2023/07/03 12:46:02;;;;;;;3.42;1.73;;;25.60;50.40;;;;;;5060018;28;20048;-74
2023/07/03 12:48:28;;;;;;;3.83;2.10;;;25.60;51.10;;;;;;5060929;28;20156;-76
2023/07/03 12:50:57;;;;;;;4.90;1.80;;;25.60;50.60;;;;;;5056759;28;20120;-77
2023/07/03 12:53:24;;;;;;;5.05;1.95;;;25.60;50.90;;;;;;5058089;28;20033;-74
2023/07/03 12:55:57;;;;;;;3.67;1.80;;;25.50;48.60;;;;;;5061149;28;20403;-74